Time;durP1;ratioP1;P1;durP2;ratioP2;P2;SDS_P1;SDS_P2;PMS_P1;PMS_P2;Temp;Humidity;BMP_temperature;BMP_pressure;BME280_temperature;BME280_humidity;BME280_pressure;Samples;Min_cycle;Max_cycle;Signal;HPM_P1;HPM_P2
2024/03/06 00:01:34;;;;;;;73.53;24.75;;;3.60;99.90;;;;;;5043895;28;20033;-64
2024/03/06 00:04:03;;;;;;;76.15;24.52;;;3.60;99.90;;;;;;5050918;28;20075;-64
2024/03/06 00:06:30;;;;;;;69.53;24.38;;;3.60;99.90;;;;;;5049362;28;20025;-64
2024/03/06 00:08:56;;;;;;;69.53;23.05;;;3.70;99.90;;;;;;5048051;28;20002;-63
2024/03/06 00:11:21;;;;;;;66.27;23.17;;;3.70;99.90;;;;;;5049410;28;20623;-64
2024/03/06 00:13:47;;;;;;;60.00;21.92;;;3.80;99.90;;;;;;5047258;28;20497;-63
2024/03/06 00:16:13;;;;;;;66.35;21.90;;;3.80;99.90;;;;;;5049860;28;20013;-63
2024/03/06 00:18:40;;;;;;;62.03;23.00;;;3.90;99.90;;;;;;5049443;28;20024;-64
2024/03/06 00:21:06;;;;;;;65.85;23.98;;;3.80;99.90;;;;;;5048896;28;20021;-64
2024/03/06 00:23:32;;;;;;;62.50;22.20;;;3.80;99.90;;;;;;5047497;28;20013;-64
2024/03/06 00:25:58;;;;;;;75.90;25.25;;;3.90;99.90;;;;;;5047818;28;20094;-64
2024/03/06 00:28:24;;;;;;;70.07;24.02;;;3.90;99.90;;;;;;5049844;28;20411;-64
2024/03/06 00:30:49;;;;;;;76.13;24.77;;;4.00;99.90;;;;;;5046489;28;20515;-64
2024/03/06 00:33:15;;;;;;;72.22;24.50;;;4.00;99.90;;;;;;5049078;28;20507;-64
2024/03/06 00:35:41;;;;;;;68.45;24.55;;;3.90;99.90;;;;;;5047130;28;20096;-64
2024/03/06 00:38:07;;;;;;;69.47;25.08;;;3.90;99.90;;;;;;5046780;28;20092;-64
2024/03/06 00:40:32;;;;;;;79.22;24.20;;;3.90;99.90;;;;;;5038526;28;20076;-64
2024/03/06 00:42:58;;;;;;;67.72;23.38;;;3.90;99.90;;;;;;5049533;28;20029;-64
2024/03/06 00:45:24;;;;;;;76.03;26.40;;;3.80;99.90;;;;;;5049548;28;20025;-64
2024/03/06 00:47:50;;;;;;;76.72;25.50;;;3.90;99.90;;;;;;5049535;28;20025;-64
2024/03/06 00:50:16;;;;;;;71.85;23.33;;;3.90;99.90;;;;;;5049493;28;20379;-64
2024/03/06 00:52:43;;;;;;;75.20;24.42;;;3.80;99.90;;;;;;5062670;28;20025;-64
2024/03/06 00:55:09;;;;;;;73.57;25.85;;;3.80;99.90;;;;;;5047598;28;20060;-64
2024/03/06 00:57:35;;;;;;;68.55;25.23;;;3.70;99.90;;;;;;5048287;28;20039;-63
2024/03/06 01:00:06;;;;;;;72.18;23.58;;;3.70;99.90;;;;;;5050079;28;20388;-64
2024/03/06 01:02:31;;;;;;;;;;;3.60;99.90;;;;;;5047571;28;20071;-64
2024/03/06 01:04:57;;;;;;;74.85;22.98;;;3.60;99.90;;;;;;5049991;28;19905;-64
2024/03/06 01:07:22;;;;;;;66.68;22.90;;;3.70;99.90;;;;;;5048529;28;20357;-64
2024/03/06 01:09:48;;;;;;;72.05;23.15;;;3.90;99.90;;;;;;5061255;28;20093;-64
2024/03/06 01:12:14;;;;;;;62.80;23.20;;;4.00;99.90;;;;;;5049826;28;20465;-64
2024/03/06 01:14:39;;;;;;;75.40;22.85;;;4.10;99.90;;;;;;5049342;28;20106;-64
2024/03/06 01:17:06;;;;;;;77.43;24.20;;;4.10;99.90;;;;;;5049779;28;20032;-64
2024/03/06 01:19:31;;;;;;;71.75;24.50;;;4.10;99.90;;;;;;5046806;28;20017;-64
2024/03/06 01:21:57;;;;;;;66.13;23.08;;;4.10;99.90;;;;;;5050042;28;20112;-64
2024/03/06 01:24:22;;;;;;;72.40;23.00;;;4.00;99.90;;;;;;5048514;28;20017;-64
2024/03/06 01:26:48;;;;;;;69.20;23.55;;;4.00;99.90;;;;;;5044930;28;20286;-64
2024/03/06 01:29:14;;;;;;;77.88;24.92;;;4.10;99.90;;;;;;5046607;28;20021;-63
2024/03/06 01:31:39;;;;;;;77.28;23.98;;;4.00;99.90;;;;;;5046815;28;20147;-64
2024/03/06 01:34:05;;;;;;;79.38;25.70;;;4.00;99.90;;;;;;5047125;28;20021;-64
2024/03/06 01:36:30;;;;;;;73.03;23.35;;;4.00;99.90;;;;;;5045046;28;20480;-64
2024/03/06 01:38:56;;;;;;;72.93;24.55;;;4.00;99.90;;;;;;5063151;28;20216;-64
2024/03/06 01:41:22;;;;;;;83.93;25.85;;;4.00;99.90;;;;;;5047415;28;20024;-64
2024/03/06 01:43:47;;;;;;;71.45;23.33;;;4.10;99.90;;;;;;5046511;28;20711;-64
2024/03/06 01:46:13;;;;;;;74.57;24.08;;;4.10;99.90;;;;;;5046774;28;20029;-64
2024/03/06 01:48:39;;;;;;;78.38;24.20;;;4.10;99.90;;;;;;5045140;28;20079;-64
2024/03/06 01:51:05;;;;;;;68.20;22.88;;;4.20;99.90;;;;;;5062834;28;20029;-64
2024/03/06 01:53:33;;;;;;;66.47;22.92;;;4.30;99.90;;;;;;5044594;28;20029;-64
2024/03/06 01:55:59;;;;;;;62.97;20.80;;;4.40;99.90;;;;;;5045317;28;20025;-63
2024/03/06 01:58:25;;;;;;;68.80;23.92;;;4.30;99.90;;;;;;5047910;28;20025;-64
2024/03/06 02:00:52;;;;;;;66.47;23.42;;;4.20;99.90;;;;;;5046811;28;20035;-64
2024/03/06 02:03:19;;;;;;;67.80;23.65;;;4.20;99.90;;;;;;5046414;28;20214;-64
2024/03/06 02:05:45;;;;;;;74.75;24.42;;;4.20;99.90;;;;;;5047708;28;20494;-64
2024/03/06 02:08:10;;;;;;;80.32;24.33;;;4.30;99.90;;;;;;5058756;28;20324;-64
2024/03/06 02:10:36;;;;;;;65.57;21.70;;;4.30;99.90;;;;;;5048263;28;20027;-64
2024/03/06 02:13:02;;;;;;;75.13;23.35;;;4.30;99.90;;;;;;5061045;28;20021;-64
2024/03/06 02:15:27;;;;;;;68.63;23.80;;;4.20;99.90;;;;;;5048636;28;20519;-64
2024/03/06 02:17:53;;;;;;;65.15;21.80;;;4.20;99.90;;;;;;5044586;28;20021;-64
2024/03/06 02:20:25;;;;;;;68.03;23.77;;;4.20;99.90;;;;;;5048430;28;20028;-64
2024/03/06 02:22:51;;;;;;;62.60;20.67;;;4.10;99.90;;;;;;5047721;28;20388;-64
2024/03/06 02:25:17;;;;;;;60.70;21.55;;;4.10;99.90;;;;;;5044682;28;20021;-64
2024/03/06 02:27:44;;;;;;;60.08;20.17;;;4.00;99.90;;;;;;5048309;28;20032;-64
2024/03/06 02:30:10;;;;;;;58.38;21.88;;;4.10;99.90;;;;;;5057471;28;20021;-64
2024/03/06 02:32:36;;;;;;;62.10;22.20;;;3.90;99.90;;;;;;5048831;28;20021;-64
2024/03/06 02:35:08;;;;;;;65.18;22.33;;;3.90;99.90;;;;;;5047619;28;20015;-64
2024/03/06 02:37:34;;;;;;;64.30;22.38;;;3.90;99.90;;;;;;5048496;28;20476;-64
2024/03/06 02:39:59;;;;;;;59.65;20.42;;;3.80;99.90;;;;;;5047290;28;20056;-63
2024/03/06 02:42:27;;;;;;;62.22;21.67;;;3.80;99.90;;;;;;5044913;28;20017;-64
2024/03/06 02:44:53;;;;;;;56.90;20.98;;;3.80;99.90;;;;;;5045849;28;20028;-64
2024/03/06 02:47:19;;;;;;;62.92;22.67;;;3.80;99.90;;;;;;5045270;28;20381;-64
2024/03/06 02:49:45;;;;;;;57.97;20.88;;;3.80;99.90;;;;;;5046387;28;20027;-64
2024/03/06 02:52:10;;;;;;;67.13;21.92;;;3.80;99.90;;;;;;5046634;28;20040;-64
2024/03/06 02:54:36;;;;;;;63.33;21.55;;;3.80;99.90;;;;;;5044230;28;20037;-65
2024/03/06 02:57:01;;;;;;;62.65;22.33;;;3.70;99.90;;;;;;5046863;28;20083;-64
2024/03/06 02:59:27;;;;;;;61.80;21.20;;;3.70;99.90;;;;;;5061301;28;20447;-64
2024/03/06 03:01:52;;;;;;;62.83;21.05;;;3.70;99.90;;;;;;5046751;28;20415;-64
2024/03/06 03:04:18;;;;;;;59.55;19.67;;;3.70;99.90;;;;;;5044098;28;20016;-64
2024/03/06 03:06:44;;;;;;;59.83;20.25;;;3.70;99.90;;;;;;5047550;28;20028;-64
2024/03/06 03:09:11;;;;;;;63.67;22.40;;;3.70;99.90;;;;;;5047386;28;20025;-64
2024/03/06 03:11:38;;;;;;;57.22;20.92;;;3.70;99.90;;;;;;5060203;28;20091;-63
2024/03/06 03:14:03;;;;;;;64.38;20.95;;;3.60;99.90;;;;;;5047514;28;20092;-64
2024/03/06 03:16:29;;;;;;;59.22;22.20;;;3.50;99.90;;;;;;5045893;28;20045;-64
2024/03/06 03:18:55;;;;;;;66.85;23.25;;;3.40;99.90;;;;;;5049679;28;20029;-64
2024/03/06 03:21:22;;;;;;;67.35;23.35;;;3.40;99.90;;;;;;5047497;28;20379;-65
2024/03/06 03:23:49;;;;;;;57.10;21.08;;;3.50;99.90;;;;;;5044145;28;20033;-64
2024/03/06 03:26:15;;;;;;;57.65;21.17;;;4.00;99.90;;;;;;5047470;28;20017;-65
2024/03/06 03:28:40;;;;;;;62.67;21.45;;;3.50;99.90;;;;;;5046800;28;20079;-64
2024/03/06 03:31:10;;;;;;;66.38;23.42;;;3.40;99.90;;;;;;5047764;28;20083;-64
2024/03/06 03:33:38;;;;;;;65.45;23.08;;;3.30;99.90;;;;;;5059688;28;20029;-64
2024/03/06 03:36:06;;;;;;;66.40;23.00;;;3.20;99.90;;;;;;5050015;28;20051;-64
2024/03/06 03:38:32;;;;;;;60.22;21.20;;;3.10;99.90;;;;;;5060581;28;20488;-65
2024/03/06 03:40:58;;;;;;;61.20;20.83;;;3.10;99.90;;;;;;5048927;28;20047;-65
2024/03/06 03:43:24;;;;;;;68.30;22.02;;;3.00;99.90;;;;;;5047772;28;20488;-64
2024/03/06 03:45:49;;;;;;;64.40;21.70;;;2.80;99.90;;;;;;5047561;28;20060;-65
2024/03/06 03:48:15;;;;;;;67.03;21.77;;;2.60;99.90;;;;;;5046542;28;20021;-64
2024/03/06 03:50:41;;;;;;;67.45;21.00;;;2.50;99.90;;;;;;5044799;28;20021;-65
2024/03/06 03:53:06;;;;;;;69.25;22.35;;;2.30;99.90;;;;;;5038905;28;20040;-64
2024/03/06 03:55:32;;;;;;;65.47;22.90;;;2.30;99.90;;;;;;5043829;28;20029;-65
2024/03/06 03:57:57;;;;;;;82.85;23.90;;;2.30;99.90;;;;;;5061520;28;20026;-64
2024/03/06 04:00:23;;;;;;;90.32;24.95;;;2.20;99.90;;;;;;5047705;28;20021;-65
2024/03/06 04:02:49;;;;;;;86.63;25.98;;;2.10;99.90;;;;;;5048009;28;20224;-64
2024/03/06 04:05:14;;;;;;;84.28;25.27;;;2.10;99.90;;;;;;5047173;28;20021;-64
2024/03/06 04:07:40;;;;;;;98.55;26.00;;;2.20;99.90;;;;;;5046980;28;20444;-64
2024/03/06 04:10:07;;;;;;;82.07;24.00;;;2.20;99.90;;;;;;5050549;28;20024;-65
2024/03/06 04:12:32;;;;;;;97.18;25.45;;;2.20;99.90;;;;;;5051678;28;20103;-65
2024/03/06 04:14:58;;;;;;;67.38;22.15;;;2.10;99.90;;;;;;5048952;28;20120;-65
2024/03/06 04:17:25;;;;;;;86.57;25.48;;;2.00;99.90;;;;;;5050021;28;20040;-64
2024/03/06 04:19:50;;;;;;;85.00;23.98;;;1.90;99.90;;;;;;5050097;28;20100;-65
2024/03/06 04:22:19;;;;;;;87.13;23.50;;;1.90;99.90;;;;;;5050126;28;20151;-64
2024/03/06 04:24:45;;;;;;;75.65;22.17;;;1.90;99.90;;;;;;5049248;28;20416;-64
2024/03/06 04:27:10;;;;;;;88.20;25.52;;;1.90;99.90;;;;;;5049987;28;20021;-65
2024/03/06 04:29:36;;;;;;;82.93;25.05;;;1.90;99.90;;;;;;5050438;28;20049;-65
2024/03/06 04:32:01;;;;;;;89.88;25.35;;;1.90;99.90;;;;;;5051138;28;20020;-65
2024/03/06 04:34:27;;;;;;;74.55;23.73;;;1.90;99.90;;;;;;5051900;28;20476;-64
2024/03/06 04:36:53;;;;;;;85.57;23.85;;;1.90;99.90;;;;;;5052168;28;20534;-64
2024/03/06 04:39:18;;;;;;;80.47;24.60;;;1.90;99.90;;;;;;5051085;28;20483;-65
2024/03/06 04:41:44;;;;;;;83.40;23.88;;;1.80;99.90;;;;;;5050830;28;20025;-65
2024/03/06 04:44:10;;;;;;;75.30;23.45;;;1.70;99.90;;;;;;5049995;28;20044;-64
2024/03/06 04:46:35;;;;;;;74.03;22.55;;;1.60;99.90;;;;;;5052207;28;20147;-64
2024/03/06 04:49:01;;;;;;;77.50;24.17;;;1.50;99.90;;;;;;5051489;28;20147;-64
2024/03/06 04:51:26;;;;;;;73.10;22.83;;;1.40;99.90;;;;;;5050414;28;20013;-64
2024/03/06 04:53:52;;;;;;;72.15;22.42;;;1.50;99.90;;;;;;5048585;28;20407;-64
2024/03/06 04:56:18;;;;;;;73.68;23.25;;;1.60;99.90;;;;;;5050525;28;20275;-64
2024/03/06 04:58:45;;;;;;;66.03;20.90;;;1.50;99.90;;;;;;5052632;28;20021;-64
2024/03/06 05:01:12;;;;;;;78.93;23.25;;;1.60;99.90;;;;;;5049533;28;20423;-64
2024/03/06 05:03:38;;;;;;;75.47;23.45;;;1.50;99.90;;;;;;5050828;28;20465;-64
2024/03/06 05:06:05;;;;;;;73.30;22.52;;;1.40;99.90;;;;;;5051620;28;20378;-64
2024/03/06 05:08:31;;;;;;;71.55;22.63;;;1.50;99.90;;;;;;5052080;28;20117;-64
2024/03/06 05:10:59;;;;;;;70.60;23.60;;;1.50;99.90;;;;;;5049799;28;20307;-64
2024/03/06 05:13:26;;;;;;;82.47;21.83;;;1.40;99.90;;;;;;5048283;28;20022;-64
2024/03/06 05:15:52;;;;;;;75.63;22.15;;;1.40;99.90;;;;;;5048879;28;20777;-64
2024/03/06 05:18:17;;;;;;;73.50;22.10;;;1.30;99.90;;;;;;5047186;28;20469;-65
2024/03/06 05:20:43;;;;;;;51.67;16.27;;;1.30;99.90;;;;;;5048916;28;20063;-64
2024/03/06 05:23:09;;;;;;;75.82;24.13;;;1.50;99.90;;;;;;5063777;28;20041;-64
2024/03/06 05:25:34;;;;;;;82.10;22.50;;;1.90;99.90;;;;;;5047094;28;20032;-64
2024/03/06 05:28:00;;;;;;;78.75;24.17;;;2.00;99.90;;;;;;5049121;28;20020;-64
2024/03/06 05:30:25;;;;;;;90.90;23.48;;;2.00;99.90;;;;;;5044727;28;20047;-64
2024/03/06 05:32:52;;;;;;;87.38;25.65;;;2.20;99.90;;;;;;5050927;28;20700;-64
2024/03/06 05:35:18;;;;;;;72.38;23.77;;;2.20;99.90;;;;;;5049936;28;20041;-63
2024/03/06 05:37:43;;;;;;;77.28;23.42;;;2.20;99.90;;;;;;5047886;28;20052;-64
2024/03/06 05:40:10;;;;;;;76.88;25.80;;;2.00;99.90;;;;;;5045965;28;20020;-64
2024/03/06 05:42:35;;;;;;;91.13;27.02;;;2.00;99.90;;;;;;5046460;28;20029;-65
2024/03/06 05:45:10;;;;;;;82.88;24.88;;;1.80;99.90;;;;;;5047859;28;20385;-65
2024/03/06 05:47:36;;;;;;;86.03;25.70;;;2.00;99.90;;;;;;5039342;28;20025;-64
2024/03/06 05:50:04;;;;;;;90.85;26.55;;;1.60;99.90;;;;;;5045700;28;20373;-63
2024/03/06 05:52:30;;;;;;;88.57;25.38;;;1.60;99.90;;;;;;5039605;28;20032;-65
2024/03/06 05:54:56;;;;;;;83.80;26.52;;;1.50;99.90;;;;;;5035181;28;20489;-65
2024/03/06 05:57:22;;;;;;;87.35;24.15;;;1.50;99.90;;;;;;5036755;28;20044;-64
2024/03/06 05:59:48;;;;;;;74.95;23.60;;;1.50;99.90;;;;;;5036046;28;20516;-64
2024/03/06 06:02:16;;;;;;;84.65;26.23;;;1.40;99.90;;;;;;5042042;28;20155;-64
2024/03/06 06:04:42;;;;;;;94.28;28.08;;;1.60;99.90;;;;;;5035714;28;20530;-64
2024/03/06 06:07:08;;;;;;;95.20;26.55;;;1.70;99.90;;;;;;5037796;28;20171;-64
2024/03/06 06:09:33;;;;;;;84.03;25.25;;;1.70;99.90;;;;;;5036709;28;20349;-64
2024/03/06 06:11:59;;;;;;;97.75;27.52;;;1.60;99.90;;;;;;5036600;28;20543;-65
2024/03/06 06:14:26;;;;;;;83.97;24.88;;;1.60;99.90;;;;;;5038966;28;20049;-64
2024/03/06 06:16:52;;;;;;;94.60;26.20;;;1.50;99.90;;;;;;5038352;28;20805;-64
2024/03/06 06:19:18;;;;;;;92.30;25.70;;;1.50;99.90;;;;;;5041056;28;20025;-64
2024/03/06 06:21:43;;;;;;;85.78;25.33;;;1.40;99.90;;;;;;5035528;28;20097;-64
2024/03/06 06:24:09;;;;;;;78.95;24.27;;;1.40;99.90;;;;;;5044806;28;20037;-64
2024/03/06 06:26:35;;;;;;;91.22;25.17;;;1.50;99.90;;;;;;5047975;28;20029;-64
2024/03/06 06:29:01;;;;;;;88.47;26.15;;;1.40;99.90;;;;;;5048094;28;20387;-64
2024/03/06 06:31:26;;;;;;;103.88;27.85;;;1.40;99.90;;;;;;5047492;28;20099;-64
2024/03/06 06:33:53;;;;;;;87.72;28.05;;;1.50;99.90;;;;;;5038976;28;20342;-65
2024/03/06 06:36:19;;;;;;;89.72;26.70;;;1.50;99.90;;;;;;5035414;28;20079;-65
2024/03/06 06:38:46;;;;;;;91.72;25.67;;;1.40;99.90;;;;;;5044106;28;20035;-65
2024/03/06 06:41:12;;;;;;;93.65;27.05;;;1.50;99.90;;;;;;5038284;28;20031;-64
2024/03/06 06:43:37;;;;;;;79.30;25.65;;;1.60;99.90;;;;;;5032667;28;20465;-64
2024/03/06 06:46:05;;;;;;;92.47;26.63;;;1.80;99.90;;;;;;5040557;28;20052;-64
2024/03/06 06:48:31;;;;;;;88.35;26.55;;;1.90;99.90;;;;;;5037668;28;20059;-64
2024/03/06 06:50:56;;;;;;;90.45;25.83;;;1.90;99.90;;;;;;5039599;28;20021;-63
2024/03/06 06:53:22;;;;;;;81.63;26.42;;;1.80;99.90;;;;;;5039537;28;20033;-63
2024/03/06 06:55:48;;;;;;;82.82;25.15;;;1.80;99.90;;;;;;5034929;28;20667;-63
2024/03/06 06:58:13;;;;;;;89.72;25.08;;;1.70;99.90;;;;;;5038179;28;20026;-63
2024/03/06 07:00:39;;;;;;;86.18;25.35;;;1.70;99.90;;;;;;5033378;28;20538;-63
2024/03/06 07:03:04;;;;;;;74.32;24.15;;;1.70;99.90;;;;;;5034248;28;20083;-63
2024/03/06 07:05:30;;;;;;;89.72;24.42;;;1.60;99.90;;;;;;5031018;28;20026;-63
2024/03/06 07:07:56;;;;;;;73.00;22.58;;;1.60;99.90;;;;;;5041497;28;20029;-63
2024/03/06 07:10:22;;;;;;;78.72;23.17;;;1.70;99.90;;;;;;5037464;28;20052;-63
2024/03/06 07:12:47;;;;;;;77.93;23.08;;;1.70;99.90;;;;;;5032773;28;20068;-64
2024/03/06 07:15:13;;;;;;;84.40;25.00;;;1.80;99.90;;;;;;5038643;28;20045;-63
2024/03/06 07:17:39;;;;;;;91.32;25.60;;;1.90;99.90;;;;;;5031764;28;20151;-63
2024/03/06 07:20:06;;;;;;;82.00;24.95;;;2.00;99.90;;;;;;5033896;28;20037;-63
2024/03/06 07:22:33;;;;;;;70.45;22.17;;;2.00;99.90;;;;;;5035623;28;20500;-63
2024/03/06 07:25:00;;;;;;;86.93;25.08;;;2.00;99.90;;;;;;5036572;28;20471;-63
2024/03/06 07:27:26;;;;;;;85.18;25.23;;;2.00;99.90;;;;;;5029787;28;20099;-62
2024/03/06 07:29:51;;;;;;;83.25;25.50;;;2.10;99.90;;;;;;5035038;28;20025;-63
2024/03/06 07:32:17;;;;;;;83.13;26.90;;;2.10;99.90;;;;;;5037453;28;20079;-63
2024/03/06 07:34:43;;;;;;;79.45;22.83;;;2.30;99.90;;;;;;5034119;28;20573;-63
2024/03/06 07:37:08;;;;;;;86.90;24.83;;;2.40;99.90;;;;;;5040090;28;20164;-63
2024/03/06 07:39:35;;;;;;;79.05;22.55;;;2.70;99.90;;;;;;5035931;28;20120;-63
2024/03/06 07:42:01;;;;;;;77.57;24.83;;;2.80;99.90;;;;;;5038135;28;20572;-62
2024/03/06 07:44:26;;;;;;;76.55;24.05;;;2.90;99.90;;;;;;5046081;28;20104;-62
2024/03/06 07:46:54;;;;;;;71.70;22.08;;;3.00;99.90;;;;;;5035612;28;20029;-63
2024/03/06 07:49:21;;;;;;;71.35;22.52;;;3.20;99.90;;;;;;5042900;28;20067;-62
2024/03/06 07:51:47;;;;;;;60.33;18.45;;;3.20;99.90;;;;;;5036271;28;20028;-62
2024/03/06 07:54:13;;;;;;;56.38;20.95;;;3.30;99.90;;;;;;5037485;28;20032;-62
2024/03/06 07:56:39;;;;;;;63.35;21.00;;;3.30;99.90;;;;;;5038221;28;20033;-62
2024/03/06 07:59:07;;;;;;;59.10;20.05;;;3.40;99.90;;;;;;5036351;28;20399;-62
2024/03/06 08:01:33;;;;;;;53.75;17.23;;;3.50;99.90;;;;;;5044039;28;20033;-62
2024/03/06 08:03:59;;;;;;;68.13;21.08;;;3.50;99.90;;;;;;5033621;28;20418;-62
2024/03/06 08:06:25;;;;;;;65.63;20.83;;;3.50;99.90;;;;;;5042293;28;20546;-64
2024/03/06 08:08:51;;;;;;;63.13;21.02;;;3.60;99.90;;;;;;5038053;28;20021;-63
2024/03/06 08:11:17;;;;;;;75.10;22.17;;;3.70;99.90;;;;;;5036791;28;20466;-63
2024/03/06 08:13:43;;;;;;;70.97;21.67;;;3.80;99.90;;;;;;5035110;28;20128;-62
2024/03/06 08:16:09;;;;;;;73.95;23.77;;;3.80;99.90;;;;;;5044070;28;20034;-62
2024/03/06 08:18:36;;;;;;;76.53;22.67;;;3.90;99.90;;;;;;5040831;28;20028;-63
2024/03/06 08:21:06;;;;;;;73.28;23.20;;;4.00;99.90;;;;;;5037904;28;20095;-63
2024/03/06 08:23:33;;;;;;;73.07;23.38;;;4.10;99.90;;;;;;5040470;28;20044;-63
2024/03/06 08:25:59;;;;;;;80.00;23.58;;;4.30;99.90;;;;;;5042206;28;20036;-63
2024/03/06 08:28:25;;;;;;;75.50;24.17;;;4.40;99.90;;;;;;5042042;28;20427;-63
2024/03/06 08:30:52;;;;;;;87.72;25.67;;;4.50;99.90;;;;;;5046406;28;20036;-63
2024/03/06 08:33:18;;;;;;;84.00;25.15;;;4.60;99.90;;;;;;5039197;28;20053;-63
2024/03/06 08:35:43;;;;;;;76.75;24.38;;;4.70;99.90;;;;;;5044116;28;20433;-63
2024/03/06 08:38:09;;;;;;;81.05;24.15;;;4.90;99.90;;;;;;5040826;28;20033;-64
2024/03/06 08:40:35;;;;;;;75.60;23.10;;;5.00;99.90;;;;;;5038659;28;20044;-63
2024/03/06 08:43:00;;;;;;;68.10;22.55;;;5.20;99.90;;;;;;5037801;28;20357;-63
2024/03/06 08:45:26;;;;;;;48.00;19.33;;;5.50;99.90;;;;;;5041721;28;20075;-63
2024/03/06 08:47:54;;;;;;;40.75;17.48;;;6.00;99.90;;;;;;5036132;28;20069;-63
2024/03/06 08:50:20;;;;;;;40.00;16.23;;;6.60;99.90;;;;;;5040139;28;20052;-63
2024/03/06 08:52:46;;;;;;;30.65;13.88;;;7.20;99.90;;;;;;5050736;28;20072;-64
2024/03/06 08:55:12;;;;;;;31.67;13.55;;;7.90;99.90;;;;;;5035922;28;20083;-64
2024/03/06 08:57:39;;;;;;;32.72;14.88;;;8.50;99.90;;;;;;5033444;28;20026;-63
2024/03/06 09:00:12;;;;;;;28.80;12.82;;;9.00;99.90;;;;;;5038889;28;20726;-64
2024/03/06 09:02:38;;;;;;;30.88;13.18;;;9.20;99.90;;;;;;5040519;28;20034;-63
2024/03/06 09:05:05;;;;;;;26.05;12.13;;;9.40;99.90;;;;;;5035634;28;20037;-63
2024/03/06 09:07:31;;;;;;;27.30;11.95;;;9.90;99.90;;;;;;5042610;28;20104;-64
2024/03/06 09:09:56;;;;;;;29.55;12.27;;;10.20;99.90;;;;;;5034320;28;20097;-64
2024/03/06 09:12:22;;;;;;;26.45;12.07;;;10.50;99.90;;;;;;5042431;28;20026;-64
2024/03/06 09:14:48;;;;;;;25.70;12.25;;;10.80;99.90;;;;;;5034280;28;20072;-64
2024/03/06 09:17:14;;;;;;;25.40;12.63;;;11.20;99.90;;;;;;5037266;28;20024;-65
2024/03/06 09:19:40;;;;;;;26.48;11.73;;;11.50;99.90;;;;;;5036695;28;20022;-64
2024/03/06 09:22:06;;;;;;;26.00;12.27;;;11.80;99.90;;;;;;5037709;28;20454;-64
2024/03/06 09:24:32;;;;;;;27.02;12.77;;;12.10;99.90;;;;;;5041771;28;20079;-64
2024/03/06 09:26:58;;;;;;;27.67;12.57;;;12.40;99.90;;;;;;5034244;28;20034;-64
2024/03/06 09:29:23;;;;;;;27.92;12.23;;;12.80;99.90;;;;;;5032945;28;20025;-64
2024/03/06 09:31:49;;;;;;;26.45;11.75;;;13.00;99.90;;;;;;5037226;28;20044;-64
2024/03/06 09:34:15;;;;;;;24.75;12.73;;;13.30;99.90;;;;;;5043635;28;20036;-64
2024/03/06 09:36:45;;;;;;;29.20;12.93;;;13.40;99.90;;;;;;5045310;28;20025;-64
2024/03/06 09:39:19;;;;;;;26.65;12.55;;;13.70;99.90;;;;;;5038827;28;20029;-64
2024/03/06 09:41:46;;;;;;;27.98;11.93;;;14.00;99.90;;;;;;5041239;28;20471;-64
2024/03/06 09:44:13;;;;;;;24.70;11.82;;;14.40;99.90;;;;;;5038409;28;20440;-64
2024/03/06 09:46:48;;;;;;;25.48;12.23;;;14.60;99.90;;;;;;5033363;28;20048;-64
2024/03/06 09:49:16;;;;;;;29.02;13.85;;;14.70;99.90;;;;;;5040637;28;20026;-64
2024/03/06 09:51:53;;;;;;;26.17;13.50;;;14.50;99.90;;;;;;5045198;28;20021;-64
2024/03/06 09:54:19;;;;;;;25.75;12.20;;;14.50;99.90;;;;;;5039771;28;20345;-64
2024/03/06 09:56:48;;;;;;;30.00;12.70;;;14.70;99.90;;;;;;5041733;28;20033;-64
2024/03/06 09:59:17;;;;;;;27.42;13.05;;;14.90;99.90;;;;;;5036110;28;20055;-64
2024/03/06 10:02:10;;;;;;;26.25;13.15;;;15.00;99.90;;;;;;5043187;28;20029;-64
2024/03/06 10:04:37;;;;;;;27.83;12.25;;;14.80;99.90;;;;;;5038944;28;20306;-64
2024/03/06 10:07:02;;;;;;;25.48;12.73;;;14.60;99.90;;;;;;5037654;28;20036;-64
2024/03/06 10:09:29;;;;;;;26.05;11.07;;;14.60;99.90;;;;;;5040867;28;20037;-64
2024/03/06 10:11:57;;;;;;;22.75;11.60;;;14.90;99.90;;;;;;5041618;28;20047;-64
2024/03/06 10:14:23;;;;;;;25.65;11.85;;;15.20;99.90;;;;;;5033990;28;20045;-64
2024/03/06 10:16:58;;;;;;;28.40;13.07;;;15.60;99.90;;;;;;5039303;28;20110;-64
2024/03/06 10:19:28;;;;;;;26.25;12.23;;;16.00;99.90;;;;;;5044034;28;20075;-65
2024/03/06 10:21:55;;;;;;;26.55;12.63;;;16.50;99.90;;;;;;5033449;28;20030;-63
2024/03/06 10:24:23;;;;;;;23.02;10.27;;;16.80;99.90;;;;;;5030194;28;20033;-64
2024/03/06 10:26:50;;;;;;;25.27;11.75;;;16.60;99.90;;;;;;5036120;28;20048;-64
2024/03/06 10:29:18;;;;;;;21.30;11.55;;;16.00;99.90;;;;;;5038272;28;20087;-64
2024/03/06 10:31:51;;;;;;;22.25;10.98;;;15.20;99.90;;;;;;5034128;28;20028;-64
2024/03/06 10:34:17;;;;;;;24.10;11.48;;;14.20;99.90;;;;;;5037594;28;20439;-64
2024/03/06 10:36:44;;;;;;;26.77;11.07;;;13.70;99.90;;;;;;5039446;28;20057;-64
2024/03/06 10:39:15;;;;;;;30.08;13.05;;;13.20;99.90;;;;;;5043030;28;20033;-64
2024/03/06 10:41:42;;;;;;;27.20;12.00;;;12.80;99.90;;;;;;5038802;28;20511;-63
2024/03/06 10:44:15;;;;;;;25.48;11.93;;;12.80;99.90;;;;;;5042291;28;20031;-64
2024/03/06 10:46:47;;;;;;;26.80;12.02;;;12.70;99.90;;;;;;5041672;28;20798;-64
2024/03/06 10:49:14;;;;;;;29.67;12.15;;;12.60;99.90;;;;;;5041972;28;20022;-64
2024/03/06 10:51:43;;;;;;;26.67;12.63;;;12.40;99.90;;;;;;5036687;28;20022;-64
2024/03/06 10:54:10;;;;;;;32.05;14.13;;;12.50;99.90;;;;;;5040532;28;20025;-64
2024/03/06 10:56:41;;;;;;;31.15;14.82;;;12.60;99.90;;;;;;5040937;28;20150;-64
2024/03/06 10:59:14;;;;;;;32.55;16.33;;;13.20;99.90;;;;;;5035793;28;20191;-63
2024/03/06 11:01:40;;;;;;;34.45;16.63;;;13.40;99.90;;;;;;5032284;28;20057;-63
2024/03/06 11:04:07;;;;;;;33.25;15.07;;;13.00;99.90;;;;;;5039352;28;20029;-64
2024/03/06 11:06:34;;;;;;;37.45;16.80;;;12.70;99.90;;;;;;5039933;28;20017;-63
2024/03/06 11:09:00;;;;;;;30.23;15.00;;;12.60;99.90;;;;;;5039728;28;20030;-63
2024/03/06 11:11:26;;;;;;;26.92;14.00;;;12.20;99.90;;;;;;5040697;28;20053;-64
2024/03/06 11:14:10;;;;;;;27.30;14.48;;;12.00;99.90;;;;;;5042751;28;20076;-64
2024/03/06 11:16:59;;;;;;;31.05;15.30;;;12.50;99.90;;;;;;5039271;28;20021;-64
2024/03/06 11:19:26;;;;;;;28.90;15.68;;;12.70;99.90;;;;;;5040085;28;20037;-64
2024/03/06 11:21:52;;;;;;;25.92;13.88;;;13.60;99.90;;;;;;5037701;28;20133;-64
2024/03/06 11:24:22;;;;;;;27.38;13.60;;;14.70;99.90;;;;;;5043256;28;20033;-64
2024/03/06 11:26:59;;;;;;;25.92;14.48;;;16.30;99.90;;;;;;5042969;28;20488;-64
2024/03/06 11:29:28;;;;;;;23.13;12.55;;;17.70;96.30;;;;;;5044262;28;20053;-64
2024/03/06 11:32:07;;;;;;;20.95;10.40;;;17.70;94.30;;;;;;5047525;28;20018;-65
2024/03/06 11:34:37;;;;;;;21.42;11.32;;;17.90;94.10;;;;;;5038319;28;20025;-65
2024/03/06 11:37:04;;;;;;;;;;;18.40;91.10;;;;;;5039916;28;20029;-65
2024/03/06 11:39:34;;;;;;;18.50;10.27;;;18.40;84.30;;;;;;5045195;28;19912;-65
2024/03/06 11:41:59;;;;;;;21.08;10.75;;;18.50;87.40;;;;;;5040052;28;20025;-65
2024/03/06 11:44:28;;;;;;;25.60;13.55;;;18.80;89.10;;;;;;5042485;28;20102;-65
2024/03/06 11:47:01;;;;;;;23.55;13.13;;;19.00;78.50;;;;;;5036736;28;20021;-65
2024/03/06 11:49:37;;;;;;;22.27;13.75;;;18.60;83.90;;;;;;5041389;28;20022;-65
2024/03/06 11:52:09;;;;;;;22.58;14.73;;;18.60;78.80;;;;;;5040265;28;20551;-64
2024/03/06 11:54:36;;;;;;;27.08;14.55;;;18.10;79.10;;;;;;5039110;28;20044;-64
2024/03/06 11:57:04;;;;;;;25.40;14.98;;;17.60;85.90;;;;;;5034248;28;20507;-65
2024/03/06 11:59:34;;;;;;;26.63;13.15;;;17.60;81.90;;;;;;5042708;28;20029;-65
2024/03/06 12:02:04;;;;;;;25.85;15.23;;;17.60;83.10;;;;;;5040276;28;20029;-64
2024/03/06 12:04:35;;;;;;;24.40;13.77;;;17.80;83.90;;;;;;5037408;28;20105;-65
2024/03/06 12:07:05;;;;;;;22.77;13.43;;;18.00;81.00;;;;;;5041485;28;20029;-65
2024/03/06 12:09:34;;;;;;;25.52;14.90;;;18.30;83.90;;;;;;5042505;28;20017;-65
2024/03/06 12:12:00;;;;;;;23.80;13.20;;;18.20;80.20;;;;;;5042083;28;20021;-64
2024/03/06 12:14:26;;;;;;;27.70;14.75;;;17.30;82.30;;;;;;5046647;28;20118;-64
2024/03/06 12:16:58;;;;;;;25.65;14.98;;;15.20;90.10;;;;;;5042105;28;20497;-64
2024/03/06 12:19:28;;;;;;;30.98;16.20;;;15.00;90.60;;;;;;5043821;28;20550;-65
2024/03/06 12:21:54;;;;;;;28.07;15.93;;;13.90;93.70;;;;;;5041118;28;20036;-65
2024/03/06 12:24:19;;;;;;;30.73;15.45;;;13.20;96.70;;;;;;5042761;28;20037;-65
2024/03/06 12:26:48;;;;;;;27.27;14.35;;;12.70;99.90;;;;;;5042649;28;20116;-65
2024/03/06 12:29:19;;;;;;;27.38;15.05;;;12.60;99.90;;;;;;5043199;28;20021;-65
2024/03/06 12:31:44;;;;;;;25.55;13.48;;;12.60;99.90;;;;;;5045957;28;20025;-64
2024/03/06 12:34:14;;;;;;;23.80;13.10;;;12.70;99.90;;;;;;5037529;28;20108;-64